sensor_id;sensor_type;location;lat;lon;timestamp;P1;P2;P0
77777;PMS5003;66966;-34.746;138.604;2023-05-19T00:00:21;10;10;
77777;PMS5003;66966;-34.746;138.604;2023-05-19T00:02:46;11;10;
77777;PMS5003;66966;-34.746;138.604;2023-05-19T00:05:12;12;11;
77777;PMS5003;66966;-34.746;138.604;2023-05-19T00:07:38;10;9;
77777;PMS5003;66966;-34.746;138.604;2023-05-19T00:10:04;13;13;
77777;PMS5003;66966;-34.746;138.604;2023-05-19T00:12:30;11;11;
77777;PMS5003;66966;-34.746;138.604;2023-05-19T00:14:55;9;9;
77777;PMS5003;66966;-34.746;138.604;2023-05-19T00:17:21;10;10;
77777;PMS5003;66966;-34.746;138.604;2023-05-19T00:19:46;13;13;
77777;PMS5003;66966;-34.746;138.604;2023-05-19T00:22:12;12;10;
77777;PMS5003;66966;-34.746;138.604;2023-05-19T00:24:38;11;11;
77777;PMS5003;66966;-34.746;138.604;2023-05-19T00:27:03;11;11;
77777;PMS5003;66966;-34.746;138.604;2023-05-19T00:29:29;17;15;
77777;PMS5003;66966;-34.746;138.604;2023-05-19T00:31:54;16;15;
77777;PMS5003;66966;-34.746;138.604;2023-05-19T00:34:19;12;12;
77777;PMS5003;66966;-34.746;138.604;2023-05-19T00:36:45;17;15;
77777;PMS5003;66966;-34.746;138.604;2023-05-19T00:39:11;15;15;
77777;PMS5003;66966;-34.746;138.604;2023-05-19T00:41:37;13;13;
77777;PMS5003;66966;-34.746;138.604;2023-05-19T00:44:02;13;13;
77777;PMS5003;66966;-34.746;138.604;2023-05-19T00:46:28;14;13;
77777;PMS5003;66966;-34.746;138.604;2023-05-19T00:48:54;14;13;
77777;PMS5003;66966;-34.746;138.604;2023-05-19T00:51:19;16;14;
77777;PMS5003;66966;-34.746;138.604;2023-05-19T00:53:45;14;14;
77777;PMS5003;66966;-34.746;138.604;2023-05-19T00:56:10;12;11;
77777;PMS5003;66966;-34.746;138.604;2023-05-19T00:58:36;14;14;
77777;PMS5003;66966;-34.746;138.604;2023-05-19T01:01:02;15;14;
77777;PMS5003;66966;-34.746;138.604;2023-05-19T01:03:28;14;14;
77777;PMS5003;66966;-34.746;138.604;2023-05-19T01:05:53;14;13;
77777;PMS5003;66966;-34.746;138.604;2023-05-19T01:08:19;16;16;
77777;PMS5003;66966;-34.746;138.604;2023-05-19T01:10:45;14;14;
77777;PMS5003;66966;-34.746;138.604;2023-05-19T01:13:10;15;15;
77777;PMS5003;66966;-34.746;138.604;2023-05-19T01:15:38;15;14;
77777;PMS5003;66966;-34.746;138.604;2023-05-19T01:18:04;14;13;
77777;PMS5003;66966;-34.746;138.604;2023-05-19T01:20:29;13;12;
77777;PMS5003;66966;-34.746;138.604;2023-05-19T01:32:36;14;13;
77777;PMS5003;66966;-34.746;138.604;2023-05-19T01:35:02;16;16;
77777;PMS5003;66966;-34.746;138.604;2023-05-19T01:37:27;16;15;
77777;PMS5003;66966;-34.746;138.604;2023-05-19T01:39:52;13;13;
77777;PMS5003;66966;-34.746;138.604;2023-05-19T01:42:18;15;14;
77777;PMS5003;66966;-34.746;138.604;2023-05-19T01:44:44;12;12;
77777;PMS5003;66966;-34.746;138.604;2023-05-19T01:47:10;13;12;
77777;PMS5003;66966;-34.746;138.604;2023-05-19T01:49:35;14;14;
77777;PMS5003;66966;-34.746;138.604;2023-05-19T01:52:01;13;13;
77777;PMS5003;66966;-34.746;138.604;2023-05-19T01:54:26;14;13;
77777;PMS5003;66966;-34.746;138.604;2023-05-19T01:56:55;16;16;
77777;PMS5003;66966;-34.746;138.604;2023-05-19T01:59:22;13;13;
77777;PMS5003;66966;-34.746;138.604;2023-05-19T02:01:45;20;20;
77777;PMS5003;66966;-34.746;138.604;2023-05-19T02:04:14;13;13;
77777;PMS5003;66966;-34.746;138.604;2023-05-19T02:06:36;15;15;
77777;PMS5003;66966;-34.746;138.604;2023-05-19T02:09:01;15;15;
77777;PMS5003;66966;-34.746;138.604;2023-05-19T02:11:26;18;17;
77777;PMS5003;66966;-34.746;138.604;2023-05-19T02:13:51;15;14;
77777;PMS5003;66966;-34.746;138.604;2023-05-19T02:16:17;16;15;
77777;PMS5003;66966;-34.746;138.604;2023-05-19T02:18:42;15;13;
77777;PMS5003;66966;-34.746;138.604;2023-05-19T02:21:08;15;14;
77777;PMS5003;66966;-34.746;138.604;2023-05-19T02:23:34;16;16;
77777;PMS5003;66966;-34.746;138.604;2023-05-19T02:25:59;15;14;
77777;PMS5003;66966;-34.746;138.604;2023-05-19T02:28:24;16;14;
77777;PMS5003;66966;-34.746;138.604;2023-05-19T02:30:50;12;12;
77777;PMS5003;66966;-34.746;138.604;2023-05-19T02:33:15;10;9;
77777;PMS5003;66966;-34.746;138.604;2023-05-19T02:35:41;13;13;
77777;PMS5003;66966;-34.746;138.604;2023-05-19T02:38:07;14;13;
77777;PMS5003;66966;-34.746;138.604;2023-05-19T02:40:32;11;11;
77777;PMS5003;66966;-34.746;138.604;2023-05-19T02:42:57;9;9;
77777;PMS5003;66966;-34.746;138.604;2023-05-19T02:45:23;8;8;
77777;PMS5003;66966;-34.746;138.604;2023-05-19T02:47:49;11;10;
77777;PMS5003;66966;-34.746;138.604;2023-05-19T02:50:14;9;8;
77777;PMS5003;66966;-34.746;138.604;2023-05-19T02:52:40;10;10;
77777;PMS5003;66966;-34.746;138.604;2023-05-19T02:55:06;9;8;
77777;PMS5003;66966;-34.746;138.604;2023-05-19T02:57:31;7;7;
77777;PMS5003;66966;-34.746;138.604;2023-05-19T02:59:57;5;5;
77777;PMS5003;66966;-34.746;138.604;2023-05-19T03:02:22;2;2;
77777;PMS5003;66966;-34.746;138.604;2023-05-19T03:04:48;1;1;
77777;PMS5003;66966;-34.746;138.604;2023-05-19T03:07:14;0;0;
77777;PMS5003;66966;-34.746;138.604;2023-05-19T03:09:40;0;0;
77777;PMS5003;66966;-34.746;138.604;2023-05-19T03:12:06;1;1;
77777;PMS5003;66966;-34.746;138.604;2023-05-19T03:14:31;1;1;
77777;PMS5003;66966;-34.746;138.604;2023-05-19T03:16:56;0;0;
77777;PMS5003;66966;-34.746;138.604;2023-05-19T03:19:22;1;1;
77777;PMS5003;66966;-34.746;138.604;2023-05-19T03:21:47;6;2;
77777;PMS5003;66966;-34.746;138.604;2023-05-19T03:24:13;2;2;
77777;PMS5003;66966;-34.746;138.604;2023-05-19T03:26:38;1;1;
77777;PMS5003;66966;-34.746;138.604;2023-05-19T03:29:04;2;2;
77777;PMS5003;66966;-34.746;138.604;2023-05-19T03:31:30;0;0;
77777;PMS5003;66966;-34.746;138.604;2023-05-19T03:33:56;2;1;
77777;PMS5003;66966;-34.746;138.604;2023-05-19T03:36:21;0;0;
77777;PMS5003;66966;-34.746;138.604;2023-05-19T03:38:46;1;1;
77777;PMS5003;66966;-34.746;138.604;2023-05-19T03:41:12;3;1;
77777;PMS5003;66966;-34.746;138.604;2023-05-19T03:43:37;0;0;
77777;PMS5003;66966;-34.746;138.604;2023-05-19T03:46:03;0;0;
77777;PMS5003;66966;-34.746;138.604;2023-05-19T03:48:29;1;0;
77777;PMS5003;66966;-34.746;138.604;2023-05-19T03:50:54;0;0;
77777;PMS5003;66966;-34.746;138.604;2023-05-19T03:53:20;0;0;
77777;PMS5003;66966;-34.746;138.604;2023-05-19T03:55:45;0;0;
77777;PMS5003;66966;-34.746;138.604;2023-05-19T03:58:11;0;0;
77777;PMS5003;66966;-34.746;138.604;2023-05-19T04:00:37;0;0;
77777;PMS5003;66966;-34.746;138.604;2023-05-19T04:03:02;0;0;
77777;PMS5003;66966;-34.746;138.604;2023-05-19T04:05:27;0;0;
77777;PMS5003;66966;-34.746;138.604;2023-05-19T04:07:53;0;0;
77777;PMS5003;66966;-34.746;138.604;2023-05-19T04:10:18;0;0;
77777;PMS5003;66966;-34.746;138.604;2023-05-19T04:12:44;0;0;
77777;PMS5003;66966;-34.746;138.604;2023-05-19T04:15:10;0;0;
77777;PMS5003;66966;-34.746;138.604;2023-05-19T04:17:35;0;0;
77777;PMS5003;66966;-34.746;138.604;2023-05-19T04:20:01;0;0;
77777;PMS5003;66966;-34.746;138.604;2023-05-19T04:22:26;0;0;
77777;PMS5003;66966;-34.746;138.604;2023-05-19T04:24:52;0;0;
77777;PMS5003;66966;-34.746;138.604;2023-05-19T04:27:17;0;0;
77777;PMS5003;66966;-34.746;138.604;2023-05-19T04:29:43;0;0;
77777;PMS5003;66966;-34.746;138.604;2023-05-19T04:32:08;0;0;
77777;PMS5003;66966;-34.746;138.604;2023-05-19T04:34:34;0;0;
77777;PMS5003;66966;-34.746;138.604;2023-05-19T04:37:00;0;0;
77777;PMS5003;66966;-34.746;138.604;2023-05-19T04:39:25;0;0;
77777;PMS5003;66966;-34.746;138.604;2023-05-19T04:41:50;0;0;
77777;PMS5003;66966;-34.746;138.604;2023-05-19T04:44:16;0;0;
77777;PMS5003;66966;-34.746;138.604;2023-05-19T04:46:41;0;0;
77777;PMS5003;66966;-34.746;138.604;2023-05-19T04:49:07;1;0;
77777;PMS5003;66966;-34.746;138.604;2023-05-19T04:51:33;0;0;
77777;PMS5003;66966;-34.746;138.604;2023-05-19T04:53:58;0;0;
77777;PMS5003;66966;-34.746;138.604;2023-05-19T04:56:24;0;0;
77777;PMS5003;66966;-34.746;138.604;2023-05-19T04:58:49;1;0;
77777;PMS5003;66966;-34.746;138.604;2023-05-19T05:01:15;0;0;
77777;PMS5003;66966;-34.746;138.604;2023-05-19T05:03:40;0;0;
77777;PMS5003;66966;-34.746;138.604;2023-05-19T05:06:07;0;0;
77777;PMS5003;66966;-34.746;138.604;2023-05-19T05:08:31;0;0;
77777;PMS5003;66966;-34.746;138.604;2023-05-19T05:10:57;0;0;
77777;PMS5003;66966;-34.746;138.604;2023-05-19T05:13:23;0;0;
77777;PMS5003;66966;-34.746;138.604;2023-05-19T05:15:48;0;0;
77777;PMS5003;66966;-34.746;138.604;2023-05-19T05:18:14;0;0;
77777;PMS5003;66966;-34.746;138.604;2023-05-19T05:20:40;0;0;
77777;PMS5003;66966;-34.746;138.604;2023-05-19T05:23:05;0;0;
77777;PMS5003;66966;-34.746;138.604;2023-05-19T05:25:31;0;0;
77777;PMS5003;66966;-34.746;138.604;2023-05-19T05:27:56;0;0;
77777;PMS5003;66966;-34.746;138.604;2023-05-19T05:30:22;0;0;
77777;PMS5003;66966;-34.746;138.604;2023-05-19T05:32:47;0;0;
77777;PMS5003;66966;-34.746;138.604;2023-05-19T05:35:13;0;0;
77777;PMS5003;66966;-34.746;138.604;2023-05-19T05:37:38;0;0;
77777;PMS5003;66966;-34.746;138.604;2023-05-19T05:40:04;0;0;
77777;PMS5003;66966;-34.746;138.604;2023-05-19T05:42:29;0;0;
77777;PMS5003;66966;-34.746;138.604;2023-05-19T05:44:55;0;0;
77777;PMS5003;66966;-34.746;138.604;2023-05-19T05:47:21;0;0;
77777;PMS5003;66966;-34.746;138.604;2023-05-19T05:49:46;0;0;
77777;PMS5003;66966;-34.746;138.604;2023-05-19T05:52:12;0;0;
77777;PMS5003;66966;-34.746;138.604;2023-05-19T05:54:37;0;0;
77777;PMS5003;66966;-34.746;138.604;2023-05-19T05:57:03;0;0;
77777;PMS5003;66966;-34.746;138.604;2023-05-19T05:59:28;0;0;
77777;PMS5003;66966;-34.746;138.604;2023-05-19T06:01:54;0;0;
77777;PMS5003;66966;-34.746;138.604;2023-05-19T06:04:20;0;0;
77777;PMS5003;66966;-34.746;138.604;2023-05-19T06:06:45;0;0;
77777;PMS5003;66966;-34.746;138.604;2023-05-19T06:09:10;0;0;
77777;PMS5003;66966;-34.746;138.604;2023-05-19T06:11:36;0;0;
77777;PMS5003;66966;-34.746;138.604;2023-05-19T06:14:02;0;0;
77777;PMS5003;66966;-34.746;138.604;2023-05-19T06:16:27;0;0;
77777;PMS5003;66966;-34.746;138.604;2023-05-19T06:18:53;1;0;
77777;PMS5003;66966;-34.746;138.604;2023-05-19T06:21:18;0;0;
77777;PMS5003;66966;-34.746;138.604;2023-05-19T06:23:44;0;0;
77777;PMS5003;66966;-34.746;138.604;2023-05-19T06:26:09;1;0;
77777;PMS5003;66966;-34.746;138.604;2023-05-19T06:28:35;0;0;
77777;PMS5003;66966;-34.746;138.604;2023-05-19T06:31:00;0;0;
77777;PMS5003;66966;-34.746;138.604;2023-05-19T06:33:26;0;0;
77777;PMS5003;66966;-34.746;138.604;2023-05-19T06:35:52;0;0;
77777;PMS5003;66966;-34.746;138.604;2023-05-19T06:38:17;0;0;
77777;PMS5003;66966;-34.746;138.604;2023-05-19T06:40:43;0;0;
77777;PMS5003;66966;-34.746;138.604;2023-05-19T06:43:08;0;0;
77777;PMS5003;66966;-34.746;138.604;2023-05-19T06:45:34;0;0;
77777;PMS5003;66966;-34.746;138.604;2023-05-19T06:48:00;0;0;
77777;PMS5003;66966;-34.746;138.604;2023-05-19T06:50:25;0;0;
77777;PMS5003;66966;-34.746;138.604;2023-05-19T06:52:51;0;0;
77777;PMS5003;66966;-34.746;138.604;2023-05-19T06:55:16;0;0;
77777;PMS5003;66966;-34.746;138.604;2023-05-19T06:57:42;0;0;
77777;PMS5003;66966;-34.746;138.604;2023-05-19T07:00:08;1;0;
77777;PMS5003;66966;-34.746;138.604;2023-05-19T07:02:33;0;0;
77777;PMS5003;66966;-34.746;138.604;2023-05-19T07:04:59;0;0;
77777;PMS5003;66966;-34.746;138.604;2023-05-19T07:07:24;0;0;
77777;PMS5003;66966;-34.746;138.604;2023-05-19T07:09:50;0;0;
77777;PMS5003;66966;-34.746;138.604;2023-05-19T07:12:15;0;0;
77777;PMS5003;66966;-34.746;138.604;2023-05-19T07:14:41;0;0;
77777;PMS5003;66966;-34.746;138.604;2023-05-19T07:17:07;0;0;
77777;PMS5003;66966;-34.746;138.604;2023-05-19T07:19:32;1;1;
77777;PMS5003;66966;-34.746;138.604;2023-05-19T07:21:58;0;0;
77777;PMS5003;66966;-34.746;138.604;2023-05-19T07:24:23;1;0;
77777;PMS5003;66966;-34.746;138.604;2023-05-19T07:26:49;1;1;
77777;PMS5003;66966;-34.746;138.604;2023-05-19T07:29:15;2;2;
77777;PMS5003;66966;-34.746;138.604;2023-05-19T07:31:40;1;1;
77777;PMS5003;66966;-34.746;138.604;2023-05-19T07:34:06;1;1;
77777;PMS5003;66966;-34.746;138.604;2023-05-19T07:36:31;3;2;
77777;PMS5003;66966;-34.746;138.604;2023-05-19T07:38:57;3;2;
77777;PMS5003;66966;-34.746;138.604;2023-05-19T07:41:23;1;1;
77777;PMS5003;66966;-34.746;138.604;2023-05-19T07:43:48;1;1;
77777;PMS5003;66966;-34.746;138.604;2023-05-19T07:46:14;1;0;
77777;PMS5003;66966;-34.746;138.604;2023-05-19T07:48:39;0;0;
77777;PMS5003;66966;-34.746;138.604;2023-05-19T07:51:05;1;1;
77777;PMS5003;66966;-34.746;138.604;2023-05-19T07:53:31;1;1;
77777;PMS5003;66966;-34.746;138.604;2023-05-19T07:55:56;2;1;
77777;PMS5003;66966;-34.746;138.604;2023-05-19T07:58:22;1;1;
77777;PMS5003;66966;-34.746;138.604;2023-05-19T08:00:47;1;1;
77777;PMS5003;66966;-34.746;138.604;2023-05-19T08:03:13;1;0;
77777;PMS5003;66966;-34.746;138.604;2023-05-19T08:05:39;0;0;
77777;PMS5003;66966;-34.746;138.604;2023-05-19T08:08:04;2;2;
77777;PMS5003;66966;-34.746;138.604;2023-05-19T08:10:29;1;0;
77777;PMS5003;66966;-34.746;138.604;2023-05-19T08:12:55;0;0;
77777;PMS5003;66966;-34.746;138.604;2023-05-19T08:15:21;1;0;
77777;PMS5003;66966;-34.746;138.604;2023-05-19T08:17:47;3;3;
77777;PMS5003;66966;-34.746;138.604;2023-05-19T08:20:12;3;3;
77777;PMS5003;66966;-34.746;138.604;2023-05-19T08:22:37;6;5;
77777;PMS5003;66966;-34.746;138.604;2023-05-19T08:25:03;5;5;
77777;PMS5003;66966;-34.746;138.604;2023-05-19T08:27:28;5;5;
77777;PMS5003;66966;-34.746;138.604;2023-05-19T08:29:54;6;6;
77777;PMS5003;66966;-34.746;138.604;2023-05-19T08:32:20;5;5;
77777;PMS5003;66966;-34.746;138.604;2023-05-19T08:34:45;5;5;
77777;PMS5003;66966;-34.746;138.604;2023-05-19T08:37:11;4;3;
77777;PMS5003;66966;-34.746;138.604;2023-05-19T08:39:37;3;3;
77777;PMS5003;66966;-34.746;138.604;2023-05-19T08:42:02;3;3;
77777;PMS5003;66966;-34.746;138.604;2023-05-19T08:44:27;3;2;
77777;PMS5003;66966;-34.746;138.604;2023-05-19T08:46:54;2;2;
77777;PMS5003;66966;-34.746;138.604;2023-05-19T08:49:20;2;2;
77777;PMS5003;66966;-34.746;138.604;2023-05-19T08:51:47;1;1;
77777;PMS5003;66966;-34.746;138.604;2023-05-19T08:54:11;2;2;
77777;PMS5003;66966;-34.746;138.604;2023-05-19T08:56:35;1;1;
77777;PMS5003;66966;-34.746;138.604;2023-05-19T08:59:01;0;0;
77777;PMS5003;66966;-34.746;138.604;2023-05-19T09:01:26;2;1;
77777;PMS5003;66966;-34.746;138.604;2023-05-19T09:03:52;0;0;
77777;PMS5003;66966;-34.746;138.604;2023-05-19T09:06:18;1;0;
77777;PMS5003;66966;-34.746;138.604;2023-05-19T09:08:43;0;0;
77777;PMS5003;66966;-34.746;138.604;2023-05-19T09:11:09;0;0;
77777;PMS5003;66966;-34.746;138.604;2023-05-19T09:13:34;4;4;
77777;PMS5003;66966;-34.746;138.604;2023-05-19T09:16:00;5;5;
77777;PMS5003;66966;-34.746;138.604;2023-05-19T09:18:25;6;5;
77777;PMS5003;66966;-34.746;138.604;2023-05-19T09:20:54;9;9;
77777;PMS5003;66966;-34.746;138.604;2023-05-19T09:23:17;11;10;
77777;PMS5003;66966;-34.746;138.604;2023-05-19T09:25:47;12;12;
77777;PMS5003;66966;-34.746;138.604;2023-05-19T09:28:08;15;13;
77777;PMS5003;66966;-34.746;138.604;2023-05-19T09:30:33;11;11;
77777;PMS5003;66966;-34.746;138.604;2023-05-19T09:32:59;6;6;
77777;PMS5003;66966;-34.746;138.604;2023-05-19T09:35:25;8;6;
77777;PMS5003;66966;-34.746;138.604;2023-05-19T09:37:51;15;15;
77777;PMS5003;66966;-34.746;138.604;2023-05-19T09:40:16;18;17;
77777;PMS5003;66966;-34.746;138.604;2023-05-19T09:42:42;22;22;
77777;PMS5003;66966;-34.746;138.604;2023-05-19T09:45:07;24;24;
77777;PMS5003;66966;-34.746;138.604;2023-05-19T09:47:33;26;26;
77777;PMS5003;66966;-34.746;138.604;2023-05-19T09:49:57;32;29;
77777;PMS5003;66966;-34.746;138.604;2023-05-19T09:52:22;20;20;
77777;PMS5003;66966;-34.746;138.604;2023-05-19T09:54:48;14;14;
77777;PMS5003;66966;-34.746;138.604;2023-05-19T09:57:14;5;5;
77777;PMS5003;66966;-34.746;138.604;2023-05-19T09:59:40;1;1;
77777;PMS5003;66966;-34.746;138.604;2023-05-19T10:02:05;0;0;
77777;PMS5003;66966;-34.746;138.604;2023-05-19T10:04:31;0;0;
77777;PMS5003;66966;-34.746;138.604;2023-05-19T10:06:57;1;0;
77777;PMS5003;66966;-34.746;138.604;2023-05-19T10:09:22;2;1;
77777;PMS5003;66966;-34.746;138.604;2023-05-19T10:11:48;1;1;
77777;PMS5003;66966;-34.746;138.604;2023-05-19T10:14:13;2;1;
77777;PMS5003;66966;-34.746;138.604;2023-05-19T10:16:39;1;1;
77777;PMS5003;66966;-34.746;138.604;2023-05-19T10:19:05;3;3;
77777;PMS5003;66966;-34.746;138.604;2023-05-19T10:21:30;1;1;
77777;PMS5003;66966;-34.746;138.604;2023-05-19T10:23:56;2;0;
77777;PMS5003;66966;-34.746;138.604;2023-05-19T10:26:21;0;0;
77777;PMS5003;66966;-34.746;138.604;2023-05-19T10:28:47;0;0;
77777;PMS5003;66966;-34.746;138.604;2023-05-19T10:31:16;0;0;
77777;PMS5003;66966;-34.746;138.604;2023-05-19T10:33:41;0;0;
77777;PMS5003;66966;-34.746;138.604;2023-05-19T10:38:31;1;1;
77777;PMS5003;66966;-34.746;138.604;2023-05-19T10:40:58;1;1;
77777;PMS5003;66966;-34.746;138.604;2023-05-19T10:43:23;2;2;
77777;PMS5003;66966;-34.746;138.604;2023-05-19T10:45:46;3;3;
77777;PMS5003;66966;-34.746;138.604;2023-05-19T10:48:13;1;1;
77777;PMS5003;66966;-34.746;138.604;2023-05-19T10:50:37;0;0;
77777;PMS5003;66966;-34.746;138.604;2023-05-19T10:53:03;3;3;
77777;PMS5003;66966;-34.746;138.604;2023-05-19T10:57:54;3;1;
77777;PMS5003;66966;-34.746;138.604;2023-05-19T11:02:45;0;0;
77777;PMS5003;66966;-34.746;138.604;2023-05-19T11:05:11;1;1;
77777;PMS5003;66966;-34.746;138.604;2023-05-19T11:07:37;2;0;
77777;PMS5003;66966;-34.746;138.604;2023-05-19T11:10:05;0;0;
77777;PMS5003;66966;-34.746;138.604;2023-05-19T11:12:28;1;1;
77777;PMS5003;66966;-34.746;138.604;2023-05-19T11:14:53;0;0;
77777;PMS5003;66966;-34.746;138.604;2023-05-19T11:17:19;0;0;
77777;PMS5003;66966;-34.746;138.604;2023-05-19T11:22:11;1;1;
77777;PMS5003;66966;-34.746;138.604;2023-05-19T11:24:36;1;1;
77777;PMS5003;66966;-34.746;138.604;2023-05-19T11:29:27;2;1;
77777;PMS5003;66966;-34.746;138.604;2023-05-19T11:31:52;2;1;
77777;PMS5003;66966;-34.746;138.604;2023-05-19T11:34:18;2;2;
77777;PMS5003;66966;-34.746;138.604;2023-05-19T11:36:44;0;0;
77777;PMS5003;66966;-34.746;138.604;2023-05-19T11:39:10;0;0;
77777;PMS5003;66966;-34.746;138.604;2023-05-19T11:41:37;0;0;
77777;PMS5003;66966;-34.746;138.604;2023-05-19T11:44:01;1;1;
77777;PMS5003;66966;-34.746;138.604;2023-05-19T11:46:26;2;1;
77777;PMS5003;66966;-34.746;138.604;2023-05-19T11:48:53;0;0;
77777;PMS5003;66966;-34.746;138.604;2023-05-19T11:51:17;1;1;
77777;PMS5003;66966;-34.746;138.604;2023-05-19T11:53:43;1;1;
77777;PMS5003;66966;-34.746;138.604;2023-05-19T11:56:08;2;1;
77777;PMS5003;66966;-34.746;138.604;2023-05-19T11:58:34;1;0;
77777;PMS5003;66966;-34.746;138.604;2023-05-19T12:01:02;3;2;
77777;PMS5003;66966;-34.746;138.604;2023-05-19T12:03:25;3;2;
77777;PMS5003;66966;-34.746;138.604;2023-05-19T12:05:50;5;5;
77777;PMS5003;66966;-34.746;138.604;2023-05-19T12:08:16;6;5;
77777;PMS5003;66966;-34.746;138.604;2023-05-19T12:10:42;7;4;
77777;PMS5003;66966;-34.746;138.604;2023-05-19T12:13:08;3;2;
77777;PMS5003;66966;-34.746;138.604;2023-05-19T12:15:33;1;1;
77777;PMS5003;66966;-34.746;138.604;2023-05-19T12:17:59;0;0;
77777;PMS5003;66966;-34.746;138.604;2023-05-19T12:20:24;0;0;
77777;PMS5003;66966;-34.746;138.604;2023-05-19T12:22:50;0;0;
77777;PMS5003;66966;-34.746;138.604;2023-05-19T12:25:16;0;0;
77777;PMS5003;66966;-34.746;138.604;2023-05-19T12:27:42;2;0;
77777;PMS5003;66966;-34.746;138.604;2023-05-19T12:30:07;2;1;
77777;PMS5003;66966;-34.746;138.604;2023-05-19T12:32:33;1;0;
77777;PMS5003;66966;-34.746;138.604;2023-05-19T12:34:58;0;0;
77777;PMS5003;66966;-34.746;138.604;2023-05-19T12:37:25;3;1;
77777;PMS5003;66966;-34.746;138.604;2023-05-19T12:39:49;1;1;
77777;PMS5003;66966;-34.746;138.604;2023-05-19T12:42:14;1;1;
77777;PMS5003;66966;-34.746;138.604;2023-05-19T12:44:42;0;0;
77777;PMS5003;66966;-34.746;138.604;2023-05-19T12:47:06;1;1;
77777;PMS5003;66966;-34.746;138.604;2023-05-19T12:49:32;1;0;
77777;PMS5003;66966;-34.746;138.604;2023-05-19T12:51:59;0;0;
77777;PMS5003;66966;-34.746;138.604;2023-05-19T12:54:22;1;0;
77777;PMS5003;66966;-34.746;138.604;2023-05-19T12:56:49;5;5;
77777;PMS5003;66966;-34.746;138.604;2023-05-19T13:01:40;6;5;
77777;PMS5003;66966;-34.746;138.604;2023-05-19T13:04:05;5;5;
77777;PMS5003;66966;-34.746;138.604;2023-05-19T13:06:30;5;5;
77777;PMS5003;66966;-34.746;138.604;2023-05-19T13:08:56;3;2;
77777;PMS5003;66966;-34.746;138.604;2023-05-19T13:11:22;2;2;
77777;PMS5003;66966;-34.746;138.604;2023-05-19T13:13:48;4;4;
77777;PMS5003;66966;-34.746;138.604;2023-05-19T13:16:13;1;1;
77777;PMS5003;66966;-34.746;138.604;2023-05-19T13:18:38;4;4;
77777;PMS5003;66966;-34.746;138.604;2023-05-19T13:21:04;7;6;
77777;PMS5003;66966;-34.746;138.604;2023-05-19T13:23:30;9;7;
77777;PMS5003;66966;-34.746;138.604;2023-05-19T13:25:56;6;6;
77777;PMS5003;66966;-34.746;138.604;2023-05-19T13:28:21;9;8;
77777;PMS5003;66966;-34.746;138.604;2023-05-19T13:30:47;8;8;
77777;PMS5003;66966;-34.746;138.604;2023-05-19T13:33:13;8;7;
77777;PMS5003;66966;-34.746;138.604;2023-05-19T13:35:38;9;7;
77777;PMS5003;66966;-34.746;138.604;2023-05-19T13:38:04;7;6;
77777;PMS5003;66966;-34.746;138.604;2023-05-19T13:40:29;2;1;
77777;PMS5003;66966;-34.746;138.604;2023-05-19T13:42:55;0;0;
77777;PMS5003;66966;-34.746;138.604;2023-05-19T13:45:20;0;0;
77777;PMS5003;66966;-34.746;138.604;2023-05-19T13:47:46;0;0;
77777;PMS5003;66966;-34.746;138.604;2023-05-19T13:50:12;0;0;
77777;PMS5003;66966;-34.746;138.604;2023-05-19T13:52:37;0;0;
77777;PMS5003;66966;-34.746;138.604;2023-05-19T13:55:03;1;0;
77777;PMS5003;66966;-34.746;138.604;2023-05-19T13:57:28;0;0;
77777;PMS5003;66966;-34.746;138.604;2023-05-19T13:59:54;0;0;
77777;PMS5003;66966;-34.746;138.604;2023-05-19T14:02:20;0;0;
77777;PMS5003;66966;-34.746;138.604;2023-05-19T14:04:45;0;0;
77777;PMS5003;66966;-34.746;138.604;2023-05-19T14:07:11;1;0;
77777;PMS5003;66966;-34.746;138.604;2023-05-19T14:09:37;0;0;
77777;PMS5003;66966;-34.746;138.604;2023-05-19T14:12:02;0;0;
77777;PMS5003;66966;-34.746;138.604;2023-05-19T14:14:28;0;0;
77777;PMS5003;66966;-34.746;138.604;2023-05-19T14:16:53;0;0;
77777;PMS5003;66966;-34.746;138.604;2023-05-19T14:19:19;0;0;
77777;PMS5003;66966;-34.746;138.604;2023-05-19T14:21:44;0;0;
77777;PMS5003;66966;-34.746;138.604;2023-05-19T14:24:10;1;1;
77777;PMS5003;66966;-34.746;138.604;2023-05-19T14:26:36;0;0;
77777;PMS5003;66966;-34.746;138.604;2023-05-19T14:29:01;0;0;
77777;PMS5003;66966;-34.746;138.604;2023-05-19T14:31:27;0;0;
77777;PMS5003;66966;-34.746;138.604;2023-05-19T14:33:52;1;0;
77777;PMS5003;66966;-34.746;138.604;2023-05-19T14:36:22;0;0;
77777;PMS5003;66966;-34.746;138.604;2023-05-19T14:38:44;7;7;
77777;PMS5003;66966;-34.746;138.604;2023-05-19T14:41:10;9;9;
77777;PMS5003;66966;-34.746;138.604;2023-05-19T14:43:35;12;10;
77777;PMS5003;66966;-34.746;138.604;2023-05-19T14:46:01;14;13;
77777;PMS5003;66966;-34.746;138.604;2023-05-19T14:48:26;13;13;
77777;PMS5003;66966;-34.746;138.604;2023-05-19T14:50:53;10;10;
77777;PMS5003;66966;-34.746;138.604;2023-05-19T14:53:17;13;13;
77777;PMS5003;66966;-34.746;138.604;2023-05-19T14:58:08;13;12;
77777;PMS5003;66966;-34.746;138.604;2023-05-19T15:00:33;10;10;
77777;PMS5003;66966;-34.746;138.604;2023-05-19T15:02:59;9;9;
77777;PMS5003;66966;-34.746;138.604;2023-05-19T15:05:25;8;8;
77777;PMS5003;66966;-34.746;138.604;2023-05-19T15:07:50;11;9;
77777;PMS5003;66966;-34.746;138.604;2023-05-19T15:10:16;8;8;
77777;PMS5003;66966;-34.746;138.604;2023-05-19T15:12:42;8;8;
77777;PMS5003;66966;-34.746;138.604;2023-05-19T15:15:08;10;8;
77777;PMS5003;66966;-34.746;138.604;2023-05-19T15:17:33;7;7;
77777;PMS5003;66966;-34.746;138.604;2023-05-19T15:19:59;6;6;
77777;PMS5003;66966;-34.746;138.604;2023-05-19T15:22:25;8;8;
77777;PMS5003;66966;-34.746;138.604;2023-05-19T15:24:50;6;6;
77777;PMS5003;66966;-34.746;138.604;2023-05-19T15:27:16;8;8;
77777;PMS5003;66966;-34.746;138.604;2023-05-19T15:29:42;7;7;
77777;PMS5003;66966;-34.746;138.604;2023-05-19T15:32:08;7;7;
77777;PMS5003;66966;-34.746;138.604;2023-05-19T15:34:33;7;7;
77777;PMS5003;66966;-34.746;138.604;2023-05-19T15:36:59;8;7;
77777;PMS5003;66966;-34.746;138.604;2023-05-19T15:39:25;9;8;
77777;PMS5003;66966;-34.746;138.604;2023-05-19T15:41:50;7;6;
77777;PMS5003;66966;-34.746;138.604;2023-05-19T15:44:16;9;8;
77777;PMS5003;66966;-34.746;138.604;2023-05-19T15:46:42;9;8;
77777;PMS5003;66966;-34.746;138.604;2023-05-19T15:49:07;9;8;
77777;PMS5003;66966;-34.746;138.604;2023-05-19T15:51:33;14;11;
77777;PMS5003;66966;-34.746;138.604;2023-05-19T15:53:57;8;7;
77777;PMS5003;66966;-34.746;138.604;2023-05-19T15:56:23;8;8;
77777;PMS5003;66966;-34.746;138.604;2023-05-19T15:58:49;9;8;
77777;PMS5003;66966;-34.746;138.604;2023-05-19T16:01:15;7;7;
77777;PMS5003;66966;-34.746;138.604;2023-05-19T16:03:40;6;6;
77777;PMS5003;66966;-34.746;138.604;2023-05-19T16:06:05;11;11;
77777;PMS5003;66966;-34.746;138.604;2023-05-19T16:08:31;6;5;